Time;durP1;ratioP1;P1;durP2;ratioP2;P2;SDS_P1;SDS_P2;PMS_P1;PMS_P2;Temp;Humidity;BMP_temperature;BMP_pressure;BME280_temperature;BME280_humidity;BME280_pressure;Samples;Min_cycle;Max_cycle;Signal;HPM_P1;HPM_P2
2022/05/30 00:01:34;;;;;;;3.40;1.00;;;;;;;;;;5096738;27;20083;-71
2022/05/30 00:03:59;;;;;;;3.33;0.98;;;;;;;;;;5114795;27;20029;-72
2022/05/30 00:06:29;;;;;;;3.08;0.90;;;;;;;;;;5119668;27;20088;-71
2022/05/30 00:08:54;;;;;;;2.97;1.20;;;;;;;;;;5114832;27;20386;-75
2022/05/30 00:11:20;;;;;;;3.65;1.35;;;;;;;;;;5113841;27;20044;-75
2022/05/30 00:13:46;;;;;;;2.33;1.00;;;;;;;;;;5094760;27;20422;-75
2022/05/30 00:16:14;;;;;;;5.07;1.48;;;;;;;;;;5114920;27;20035;-72
2022/05/30 00:18:40;;;;;;;5.50;1.30;;;;;;;;;;5114665;27;20035;-75
2022/05/30 00:21:06;;;;;;;2.47;1.10;;;;;;;;;;5101779;27;20015;-72
2022/05/30 00:23:32;;;;;;;3.33;1.40;;;;;;;;;;5114246;27;20031;-73
2022/05/30 00:25:58;;;;;;;3.58;1.13;;;;;;;;;;5111495;27;20046;-73
2022/05/30 00:28:23;;;;;;;4.18;1.17;;;;;;;;;;5115411;27;20023;-72
2022/05/30 00:30:49;;;;;;;5.40;1.48;;;;;;;;;;5116966;27;20031;-72
2022/05/30 00:33:16;;;;;;;2.65;1.30;;;;;;;;;;5114721;27;20106;-75
2022/05/30 00:35:42;;;;;;;4.97;1.83;;;;;;;;;;5116089;27;20138;-72
2022/05/30 00:38:08;;;;;;;3.83;1.60;;;;;;;;;;5096540;27;20475;-75
2022/05/30 00:40:36;;;;;;;5.75;1.80;;;;;;;;;;5119970;27;20038;-72
2022/05/30 00:43:23;;;;;;;3.42;1.58;;;;;;;;;;5101079;27;20046;-72
2022/05/30 00:45:50;;;;;;;4.68;2.28;;;;;;;;;;5113986;27;20034;-74
2022/05/30 00:48:17;;;;;;;5.32;1.80;;;;;;;;;;5117848;27;20026;-75
2022/05/30 00:50:43;;;;;;;6.28;1.35;;;;;;;;;;5118062;27;20030;-73
2022/05/30 00:53:09;;;;;;;4.60;1.75;;;;;;;;;;5117282;27;20034;-76
2022/05/30 00:55:35;;;;;;;3.58;1.60;;;;;;;;;;5100434;27;20112;-75
2022/05/30 00:58:02;;;;;;;3.60;1.40;;;;;;;;;;5101536;27;20387;-72
2022/05/30 01:00:28;;;;;;;6.05;1.33;;;;;;;;;;5114959;27;20025;-75
2022/05/30 01:08:26;;;;;;;4.43;1.52;;;;;;;;;;5113525;27;20030;-75
2022/05/30 01:10:52;;;;;;;2.47;1.30;;;;;;;;;;5115100;27;20035;-72
2022/05/30 01:13:17;;;;;;;3.40;1.50;;;;;;;;;;5111211;28;20506;-75
2022/05/30 01:15:42;;;;;;;5.47;1.40;;;;;;;;;;5114711;27;20023;-75
2022/05/30 01:18:14;;;;;;;2.88;1.35;;;;;;;;;;5092603;27;20111;-75
2022/05/30 01:20:43;;;;;;;6.30;1.60;;;;;;;;;;5118038;27;20122;-75
2022/05/30 01:23:55;;;;;;;5.22;1.58;;;;;;;;;;5115583;27;20027;-75
2022/05/30 01:26:38;;;;;;;3.22;1.20;;;;;;;;;;5114044;27;20130;-74
2022/05/30 01:29:20;;;;;;;2.72;1.40;;;;;;;;;;5112781;27;20058;-72
2022/05/30 01:31:45;;;;;;;3.75;1.23;;;;;;;;;;5117131;28;20024;-75
2022/05/30 01:34:11;;;;;;;3.42;1.27;;;;;;;;;;5115253;28;20043;-75
2022/05/30 01:36:37;;;;;;;2.88;1.23;;;;;;;;;;5113988;28;22394;-72
2022/05/30 01:39:04;;;;;;;3.75;1.35;;;;;;;;;;5117494;28;20065;-73
2022/05/30 01:41:30;;;;;;;3.80;1.52;;;;;;;;;;5113711;28;20041;-75
2022/05/30 01:43:55;;;;;;;3.42;1.90;;;;;;;;;;5112803;28;20019;-75
2022/05/30 01:46:23;;;;;;;3.42;1.30;;;;;;;;;;5113229;28;20402;-72
2022/05/30 01:48:49;;;;;;;4.63;1.40;;;;;;;;;;5105839;28;20020;-73
2022/05/30 01:51:16;;;;;;;5.03;1.58;;;;;;;;;;5120634;28;20035;-74
2022/05/30 01:53:41;;;;;;;3.67;1.42;;;;;;;;;;5094677;28;20067;-74
2022/05/30 01:56:07;;;;;;;2.78;1.60;;;;;;;;;;5098006;28;20092;-73
2022/05/30 01:58:33;;;;;;;2.97;1.40;;;;;;;;;;5116332;28;20032;-75
2022/05/30 02:01:02;;;;;;;3.60;1.85;;;;;;;;;;5114241;28;20027;-72
2022/05/30 02:03:27;;;;;;;3.65;1.70;;;;;;;;;;5105705;28;20111;-71
2022/05/30 02:05:53;;;;;;;3.85;1.65;;;;;;;;;;5096702;28;20168;-74
2022/05/30 02:08:21;;;;;;;8.20;1.50;;;;;;;;;;5094762;28;20118;-72
2022/05/30 02:10:47;;;;;;;2.92;1.70;;;;;;;;;;5114324;27;20049;-72
2022/05/30 02:13:12;;;;;;;3.55;1.30;;;;;;;;;;5110069;28;20110;-73
2022/05/30 02:17:00;;;;;;;3.40;1.30;;;;;;;;;;5114218;27;20173;-72
2022/05/30 02:18:23;;;;;;;4.80;1.50;;;;;;;;;;5116563;27;21660;-74
2022/05/30 02:20:48;;;;;;;4.75;1.50;;;;;;;;;;5119519;27;20042;-72
2022/05/30 02:23:14;;;;;;;3.65;1.27;;;;;;;;;;5105409;27;20039;-72
2022/05/30 02:25:40;;;;;;;2.58;1.52;;;;;;;;;;5119529;27;20102;-76
2022/05/30 02:28:06;;;;;;;2.95;1.50;;;;;;;;;;5117137;27;20383;-72
2022/05/30 02:30:31;;;;;;;2.80;1.23;;;;;;;;;;5119765;27;20032;-75
2022/05/30 02:36:38;;;;;;;3.78;1.73;;;;;;;;;;5102265;27;20050;-75
2022/05/30 02:38:26;;;;;;;3.45;1.50;;;;;;;;;;5117775;27;20446;-75
2022/05/30 02:40:51;;;;;;;3.25;1.50;;;;;;;;;;5120428;27;20166;-72
2022/05/30 02:43:16;;;;;;;2.47;1.38;;;;;;;;;;5115956;27;20071;-72
2022/05/30 02:45:41;;;;;;;3.88;1.38;;;;;;;;;;5101185;27;20034;-75
2022/05/30 02:48:08;;;;;;;2.80;1.55;;;;;;;;;;5099826;27;20032;-73
2022/05/30 02:50:33;;;;;;;2.22;1.40;;;;;;;;;;5098347;27;20027;-75
2022/05/30 02:52:58;;;;;;;3.35;1.20;;;;;;;;;;5123435;27;20023;-75
2022/05/30 02:55:24;;;;;;;3.70;1.30;;;;;;;;;;5121227;27;20027;-72
2022/05/30 02:57:50;;;;;;;2.53;1.40;;;;;;;;;;5114172;27;20024;-72
2022/05/30 03:00:16;;;;;;;2.42;1.40;;;;;;;;;;5115156;27;20035;-72
2022/05/30 03:02:41;;;;;;;3.92;1.38;;;;;;;;;;5096674;27;20031;-75
2022/05/30 03:05:07;;;;;;;2.83;1.30;;;;;;;;;;5116089;27;20035;-72
2022/05/30 03:07:32;;;;;;;3.50;1.63;;;;;;;;;;5121351;27;20031;-74
2022/05/30 03:09:57;;;;;;;4.15;1.58;;;;;;;;;;5117755;27;20023;-74
2022/05/30 03:12:23;;;;;;;4.68;1.65;;;;;;;;;;5100790;27;20410;-72
2022/05/30 03:14:49;;;;;;;2.47;1.48;;;;;;;;;;5116063;27;20158;-71
2022/05/30 03:17:14;;;;;;;3.05;1.58;;;;;;;;;;5113752;27;20020;-75
2022/05/30 03:19:39;;;;;;;3.33;1.60;;;;;;;;;;5098239;27;20039;-74
2022/05/30 03:22:05;;;;;;;2.90;1.60;;;;;;;;;;5122264;27;20067;-75
2022/05/30 03:24:30;;;;;;;2.72;1.42;;;;;;;;;;5115903;27;20048;-72
2022/05/30 03:26:55;;;;;;;2.38;1.40;;;;;;;;;;5116094;27;20038;-72
2022/05/30 03:29:21;;;;;;;2.47;1.45;;;;;;;;;;5116673;27;20022;-75
2022/05/30 03:31:46;;;;;;;5.07;1.63;;;;;;;;;;5118430;27;20027;-71
2022/05/30 03:34:11;;;;;;;3.05;1.63;;;;;;;;;;5101478;27;20042;-72
2022/05/30 03:36:36;;;;;;;2.30;1.35;;;;;;;;;;5119390;27;20045;-75
2022/05/30 03:39:02;;;;;;;4.20;1.55;;;;;;;;;;5095782;27;20026;-75
2022/05/30 03:41:27;;;;;;;4.07;1.70;;;;;;;;;;5100771;27;20457;-75
2022/05/30 03:43:55;;;;;;;3.00;1.60;;;;;;;;;;5111176;27;20016;-75
2022/05/30 03:46:20;;;;;;;3.17;1.83;;;;;;;;;;5103358;27;20028;-72
2022/05/30 03:48:46;;;;;;;3.63;1.67;;;;;;;;;;5095726;27;20060;-72
2022/05/30 03:51:12;;;;;;;4.07;1.83;;;;;;;;;;5099153;28;20031;-72
2022/05/30 03:53:38;;;;;;;6.22;1.90;;;;;;;;;;5099112;27;20027;-72
2022/05/30 03:56:03;;;;;;;3.25;1.70;;;;;;;;;;5096305;27;20038;-74
2022/05/30 03:58:28;;;;;;;3.22;1.50;;;;;;;;;;5095240;27;20083;-73
2022/05/30 04:00:54;;;;;;;3.20;1.50;;;;;;;;;;5120682;27;20037;-72
2022/05/30 04:03:19;;;;;;;2.80;1.40;;;;;;;;;;5104856;27;20019;-73
2022/05/30 04:05:44;;;;;;;3.47;1.70;;;;;;;;;;5103340;27;20054;-76
2022/05/30 04:08:09;;;;;;;3.00;1.40;;;;;;;;;;5117719;27;20554;-75
2022/05/30 04:10:35;;;;;;;2.88;1.50;;;;;;;;;;5114185;27;20536;-75
2022/05/30 04:13:11;;;;;;;3.90;1.70;;;;;;;;;;5112450;27;20030;-75
2022/05/30 04:15:36;;;;;;;3.67;1.60;;;;;;;;;;5097472;27;20118;-76
2022/05/30 04:18:03;;;;;;;2.05;1.23;;;;;;;;;;5120972;27;20596;-72
2022/05/30 04:20:28;;;;;;;3.47;1.42;;;;;;;;;;5113884;27;20034;-75
2022/05/30 04:22:54;;;;;;;2.58;1.40;;;;;;;;;;5119109;27;20023;-72
2022/05/30 04:25:19;;;;;;;2.55;1.45;;;;;;;;;;5096726;27;20019;-72
2022/05/30 04:27:44;;;;;;;2.67;1.30;;;;;;;;;;5116260;27;20023;-73
2022/05/30 04:30:10;;;;;;;2.78;1.42;;;;;;;;;;5098232;27;20035;-75
2022/05/30 04:32:36;;;;;;;4.43;1.73;;;;;;;;;;5118415;27;20104;-75
2022/05/30 04:35:02;;;;;;;2.90;1.70;;;;;;;;;;5123336;27;20054;-74
2022/05/30 04:37:29;;;;;;;3.30;1.60;;;;;;;;;;5117026;27;20038;-72
2022/05/30 04:39:54;;;;;;;2.38;1.50;;;;;;;;;;5120400;27;20035;-75
2022/05/30 04:42:19;;;;;;;2.72;1.20;;;;;;;;;;5113470;27;21735;-75
2022/05/30 04:44:45;;;;;;;3.42;1.75;;;;;;;;;;5114226;27;20034;-72
2022/05/30 04:47:11;;;;;;;5.13;1.65;;;;;;;;;;5104150;27;20031;-74
2022/05/30 04:49:38;;;;;;;2.67;1.50;;;;;;;;;;5115521;27;20020;-75
2022/05/30 04:52:03;;;;;;;3.80;1.70;;;;;;;;;;5101267;27;20595;-71
2022/05/30 04:54:29;;;;;;;3.28;1.20;;;;;;;;;;5111386;27;20145;-73
2022/05/30 04:56:54;;;;;;;3.00;1.33;;;;;;;;;;5114558;27;20056;-71
2022/05/30 04:59:19;;;;;;;3.03;1.63;;;;;;;;;;5112868;27;20031;-72
2022/05/30 05:01:45;;;;;;;3.25;1.30;;;;;;;;;;5115807;27;20046;-75
2022/05/30 05:04:11;;;;;;;3.38;1.40;;;;;;;;;;5115374;27;20813;-72
2022/05/30 05:06:37;;;;;;;3.25;1.48;;;;;;;;;;5112090;27;20024;-72
2022/05/30 05:09:12;;;;;;;2.10;1.27;;;;;;;;;;5117476;27;20531;-75
2022/05/30 05:11:37;;;;;;;4.57;1.48;;;;;;;;;;5118104;27;20019;-72
2022/05/30 05:14:03;;;;;;;4.57;1.45;;;;;;;;;;5103311;28;20030;-72
2022/05/30 05:16:30;;;;;;;3.33;1.50;;;;;;;;;;5117322;28;20027;-75
2022/05/30 05:18:56;;;;;;;6.00;1.75;;;;;;;;;;5099213;27;20930;-72
2022/05/30 05:21:30;;;;;;;3.67;1.67;;;;;;;;;;5113579;27;20036;-72
2022/05/30 05:23:57;;;;;;;4.13;1.75;;;;;;;;;;5118415;27;20097;-78
2022/05/30 05:26:22;;;;;;;3.45;1.80;;;;;;;;;;5115457;28;20046;-75
2022/05/30 05:28:48;;;;;;;3.80;2.00;;;;;;;;;;5092079;28;20028;-75
2022/05/30 05:31:22;;;;;;;4.15;1.80;;;;;;;;;;5109448;28;20031;-75
2022/05/30 05:33:47;;;;;;;4.00;1.92;;;;;;;;;;5091370;28;20052;-74
2022/05/30 05:36:19;;;;;;;5.10;2.08;;;;;;;;;;5095563;28;20031;-75
2022/05/30 05:38:44;;;;;;;3.95;1.70;;;;;;;;;;5097619;28;20023;-72
2022/05/30 05:41:09;;;;;;;8.10;2.15;;;;;;;;;;5092023;28;20037;-75
2022/05/30 05:43:35;;;;;;;3.78;2.00;;;;;;;;;;5088845;28;21922;-73
2022/05/30 05:46:00;;;;;;;4.78;2.30;;;;;;;;;;5086890;28;20114;-74
2022/05/30 05:48:25;;;;;;;3.58;1.73;;;;;;;;;;5085459;28;20024;-73
2022/05/30 05:50:50;;;;;;;3.70;1.85;;;;;;;;;;5095879;28;20506;-72
2022/05/30 05:53:16;;;;;;;4.57;1.95;;;;;;;;;;5101271;27;20032;-75
2022/05/30 05:55:41;;;;;;;4.05;2.20;;;;;;;;;;5090061;28;20050;-73
2022/05/30 05:58:06;;;;;;;8.43;2.00;;;;;;;;;;5092615;28;20709;-75
2022/05/30 06:00:33;;;;;;;4.20;2.08;;;;;;;;;;5095232;28;20058;-75
2022/05/30 06:02:58;;;;;;;4.80;2.03;;;;;;;;;;5096606;28;20020;-75
2022/05/30 06:05:24;;;;;;;6.28;2.40;;;;;;;;;;5097863;28;20024;-71
2022/05/30 06:07:49;;;;;;;4.50;2.05;;;;;;;;;;5100399;28;20038;-75
2022/05/30 06:10:15;;;;;;;4.07;1.90;;;;;;;;;;5100455;28;20024;-74
2022/05/30 06:12:43;;;;;;;4.45;2.00;;;;;;;;;;5097660;28;20395;-71
2022/05/30 06:15:10;;;;;;;3.85;2.13;;;;;;;;;;5092462;28;20482;-75
2022/05/30 06:17:40;;;;;;;3.97;2.20;;;;;;;;;;5097515;28;20034;-72
2022/05/30 06:20:11;;;;;;;5.15;2.00;;;;;;;;;;5097492;28;20047;-72
2022/05/30 06:22:36;;;;;;;5.20;1.83;;;;;;;;;;5097420;28;20031;-71
2022/05/30 06:25:02;;;;;;;7.20;1.80;;;;;;;;;;5107495;28;20031;-75
2022/05/30 06:27:27;;;;;;;4.60;1.80;;;;;;;;;;5098119;28;20482;-75
2022/05/30 06:29:53;;;;;;;7.85;1.98;;;;;;;;;;5104423;28;20047;-75
2022/05/30 06:32:18;;;;;;;5.68;1.95;;;;;;;;;;5119422;27;20020;-71
2022/05/30 06:34:44;;;;;;;4.63;1.85;;;;;;;;;;5118274;27;20127;-72
2022/05/30 06:37:10;;;;;;;3.60;1.60;;;;;;;;;;5122630;27;20055;-71
2022/05/30 06:39:37;;;;;;;3.80;1.98;;;;;;;;;;5112586;27;20027;-72
2022/05/30 06:42:02;;;;;;;5.38;2.00;;;;;;;;;;5106431;27;20044;-76
2022/05/30 06:44:27;;;;;;;4.25;1.77;;;;;;;;;;5120297;27;20026;-75
2022/05/30 06:46:53;;;;;;;7.03;1.90;;;;;;;;;;5108679;27;20467;-71
2022/05/30 06:49:18;;;;;;;6.32;2.90;;;;;;;;;;5117610;27;20023;-75
2022/05/30 06:51:44;;;;;;;4.03;1.52;;;;;;;;;;5103224;27;20023;-72
2022/05/30 06:54:09;;;;;;;5.85;1.48;;;;;;;;;;5120070;27;20102;-75
2022/05/30 06:58:12;;;;;;;4.50;1.60;;;;;;;;;;5124315;27;21687;-72
2022/05/30 06:59:29;;;;;;;5.20;1.52;;;;;;;;;;5116141;27;20027;-71
2022/05/30 07:01:55;;;;;;;7.05;1.60;;;;;;;;;;5117774;27;20056;-76
2022/05/30 07:04:21;;;;;;;5.32;1.48;;;;;;;;;;5108695;27;20030;-72
2022/05/30 07:06:46;;;;;;;2.58;1.10;;;;;;;;;;5119739;27;20114;-75
2022/05/30 07:09:12;;;;;;;3.25;0.90;;;;;;;;;;5116480;27;20023;-75
2022/05/30 07:11:39;;;;;;;3.22;1.17;;;;;;;;;;5126311;27;20113;-72
2022/05/30 07:14:10;;;;;;;5.65;1.15;;;;;;;;;;5126302;27;20028;-73
2022/05/30 07:16:36;;;;;;;5.30;1.15;;;;;;;;;;5115757;27;20394;-75
2022/05/30 07:19:03;;;;;;;2.60;1.10;;;;;;;;;;5119310;27;20099;-72
2022/05/30 07:21:28;;;;;;;2.17;0.90;;;;;;;;;;5124146;27;20404;-74
2022/05/30 07:23:53;;;;;;;1.88;0.98;;;;;;;;;;5117251;27;20028;-71
2022/05/30 07:26:21;;;;;;;2.92;0.80;;;;;;;;;;5115017;27;20023;-74
2022/05/30 07:28:47;;;;;;;2.72;0.95;;;;;;;;;;5119232;27;20023;-75
2022/05/30 07:31:17;;;;;;;2.92;0.80;;;;;;;;;;5104434;27;20107;-76
2022/05/30 07:33:45;;;;;;;2.78;0.70;;;;;;;;;;5122825;27;20464;-72
2022/05/30 07:36:14;;;;;;;2.15;0.80;;;;;;;;;;5111213;27;20028;-72
2022/05/30 07:38:40;;;;;;;3.42;1.00;;;;;;;;;;5120947;27;20483;-74
2022/05/30 07:41:06;;;;;;;4.80;1.15;;;;;;;;;;5118163;27;20026;-75
2022/05/30 07:43:31;;;;;;;2.70;0.90;;;;;;;;;;5121778;27;20391;-75
2022/05/30 07:46:23;;;;;;;3.72;1.10;;;;;;;;;;5122822;27;20035;-75
2022/05/30 07:48:49;;;;;;;4.13;1.10;;;;;;;;;;5113540;27;20087;-75
2022/05/30 07:51:15;;;;;;;6.03;0.98;;;;;;;;;;5123269;27;20454;-72
2022/05/30 07:53:42;;;;;;;3.47;0.90;;;;;;;;;;5099358;27;20072;-72
2022/05/30 07:56:11;;;;;;;3.38;0.80;;;;;;;;;;5117502;27;20062;-71
2022/05/30 07:58:36;;;;;;;0.93;0.70;;;;;;;;;;5118954;27;20027;-76
2022/05/30 08:01:03;;;;;;;3.17;1.08;;;;;;;;;;5118722;27;20485;-71
2022/05/30 08:03:29;;;;;;;1.23;0.88;;;;;;;;;;5117974;27;20034;-72
2022/05/30 08:06:12;;;;;;;4.47;1.00;;;;;;;;;;5123366;27;20023;-72
2022/05/30 08:08:37;;;;;;;2.22;0.90;;;;;;;;;;5116425;27;20123;-75
2022/05/30 08:11:03;;;;;;;6.28;1.05;;;;;;;;;;5100595;27;20462;-72
2022/05/30 08:13:28;;;;;;;2.67;1.00;;;;;;;;;;5111036;27;20020;-75
2022/05/30 08:15:53;;;;;;;2.05;0.98;;;;;;;;;;5127503;27;20031;-71
2022/05/30 08:18:19;;;;;;;3.15;1.00;;;;;;;;;;5104950;27;20031;-75
2022/05/30 08:20:45;;;;;;;1.45;1.00;;;;;;;;;;5105117;27;20023;-75
2022/05/30 08:23:11;;;;;;;3.28;1.23;;;;;;;;;;5119719;27;20027;-75
2022/05/30 08:25:38;;;;;;;4.07;0.95;;;;;;;;;;5121135;27;20027;-72
2022/05/30 08:28:03;;;;;;;3.92;1.27;;;;;;;;;;5113707;27;21693;-75
2022/05/30 08:30:29;;;;;;;1.55;0.90;;;;;;;;;;5117919;27;20066;-75
2022/05/30 08:32:54;;;;;;;2.63;1.02;;;;;;;;;;5116915;27;20027;-73
2022/05/30 08:35:20;;;;;;;3.28;0.98;;;;;;;;;;5114454;27;20039;-76
2022/05/30 08:37:47;;;;;;;3.30;1.15;;;;;;;;;;5119054;27;20097;-76
2022/05/30 08:43:19;;;;;;;2.22;1.02;;;;;;;;;;5120113;27;20069;-75
2022/05/30 08:45:46;;;;;;;3.33;1.20;;;;;;;;;;5114616;27;20437;-76
2022/05/30 08:48:14;;;;;;;3.53;0.93;;;;;;;;;;5113992;27;20015;-72
2022/05/30 08:50:46;;;;;;;3.72;0.90;;;;;;;;;;5118534;27;20471;-73
2022/05/30 08:53:46;;;;;;;1.98;0.90;;;;;;;;;;5104015;27;20535;-72
2022/05/30 08:56:34;;;;;;;2.58;0.90;;;;;;;;;;5121252;27;20022;-72
2022/05/30 08:59:36;;;;;;;3.53;0.98;;;;;;;;;;5123426;27;20042;-75
2022/05/30 09:02:09;;;;;;;2.95;0.80;;;;;;;;;;5114058;27;20030;-75
2022/05/30 09:04:41;;;;;;;4.72;1.13;;;;;;;;;;5104581;27;20445;-75
2022/05/30 09:07:14;;;;;;;4.82;1.40;;;;;;;;;;5096498;28;20118;-75
2022/05/30 09:09:53;;;;;;;4.40;1.08;;;;;;;;;;5122197;27;20197;-76
2022/05/30 09:12:43;;;;;;;2.63;0.90;;;;;;;;;;5118299;27;20498;-72
2022/05/30 09:15:17;;;;;;;2.03;0.82;;;;;;;;;;5121915;27;20019;-72
2022/05/30 09:18:07;;;;;;;3.53;0.80;;;;;;;;;;5108083;28;20023;-72
2022/05/30 09:20:34;;;;;;;2.13;0.85;;;;;;;;;;5114405;27;20074;-72
2022/05/30 09:23:04;;;;;;;2.25;0.90;;;;;;;;;;5110774;27;20030;-73
2022/05/30 09:25:57;;;;;;;1.65;0.88;;;;;;;;;;5115566;28;20019;-72
2022/05/30 09:28:35;;;;;;;1.75;0.93;;;;;;;;;;5116188;27;20126;-76
2022/05/30 09:31:21;;;;;;;2.58;1.02;;;;;;;;;;5117511;28;20043;-73
2022/05/30 09:33:58;;;;;;;3.45;0.93;;;;;;;;;;5101928;28;20067;-72
2022/05/30 09:36:28;;;;;;;2.45;0.98;;;;;;;;;;5119984;28;20023;-75
2022/05/30 09:39:03;;;;;;;2.03;0.75;;;;;;;;;;5118574;28;20114;-75
2022/05/30 09:41:46;;;;;;;1.75;1.08;;;;;;;;;;5115337;28;20483;-76
2022/05/30 09:44:11;;;;;;;1.77;1.02;;;;;;;;;;5108227;28;20829;-75
2022/05/30 09:46:42;;;;;;;2.23;0.90;;;;;;;;;;5122633;27;20030;-75
2022/05/30 09:49:19;;;;;;;1.90;0.90;;;;;;;;;;5093260;28;20819;-73
2022/05/30 09:52:01;;;;;;;1.40;0.90;;;;;;;;;;5120761;28;20046;-75
2022/05/30 09:54:26;;;;;;;3.10;1.23;;;;;;;;;;5107664;28;20117;-75
2022/05/30 09:56:57;;;;;;;2.47;1.00;;;;;;;;;;5102310;28;20047;-73
2022/05/30 09:59:34;;;;;;;2.50;1.10;;;;;;;;;;5110253;28;20290;-76
2022/05/30 10:02:01;;;;;;;2.85;1.02;;;;;;;;;;5118182;28;20019;-75
2022/05/30 10:04:34;;;;;;;1.48;0.80;;;;;;;;;;5107304;28;20395;-74
2022/05/30 10:07:05;;;;;;;3.55;0.95;;;;;;;;;;5098292;28;20035;-73
2022/05/30 10:09:33;;;;;;;1.90;0.93;;;;;;;;;;5114382;28;20027;-73
2022/05/30 10:11:59;;;;;;;2.30;0.90;;;;;;;;;;5114200;28;20028;-75
2022/05/30 10:14:29;;;;;;;2.58;1.00;;;;;;;;;;5092769;28;20038;-75
2022/05/30 10:16:58;;;;;;;3.00;0.98;;;;;;;;;;5092375;28;20629;-75
2022/05/30 10:19:27;;;;;;;2.13;1.08;;;;;;;;;;5105284;28;20023;-75
2022/05/30 10:28:36;;;;;;;2.88;1.20;;;;;;;;;;5065005;28;20388;-75
2022/05/30 10:31:47;;;;;;;2.13;1.23;;;;;;;;;;5063855;28;20089;-72
2022/05/30 10:34:24;;;;;;;4.63;1.42;;;;;;;;;;5011095;28;20116;-76
2022/05/30 10:37:07;;;;;;;4.55;1.50;;;;;;;;;;5001969;28;20481;-73
2022/05/30 10:40:10;;;;;;;2.63;1.58;;;;;;;;;;5093392;27;20401;-75
2022/05/30 10:42:44;;;;;;;2.08;1.35;;;;;;;;;;5105039;27;20079;-75
2022/05/30 10:45:40;;;;;;;3.65;1.30;;;;;;;;;;5107571;27;20032;-73
2022/05/30 10:48:16;;;;;;;4.05;1.85;;;;;;;;;;5101585;27;20076;-72
2022/05/30 10:50:58;;;;;;;2.92;1.30;;;;;;;;;;5116280;27;20068;-73
2022/05/30 10:53:41;;;;;;;3.75;1.30;;;;;;;;;;5125391;27;20123;-75
2022/05/30 10:56:18;;;;;;;4.05;1.48;;;;;;;;;;5104181;27;20034;-73
2022/05/30 10:58:51;;;;;;;2.95;1.15;;;;;;;;;;5126263;27;20050;-75
2022/05/30 11:01:30;;;;;;;5.40;1.20;;;;;;;;;;5122464;27;20027;-75
2022/05/30 11:04:09;;;;;;;3.33;1.17;;;;;;;;;;5101610;27;20061;-75
2022/05/30 11:06:39;;;;;;;1.20;0.80;;;;;;;;;;5126184;27;20102;-75
2022/05/30 11:09:19;;;;;;;2.33;1.13;;;;;;;;;;5118667;27;20391;-72
2022/05/30 11:11:48;;;;;;;1.38;0.70;;;;;;;;;;5118165;27;20042;-72
2022/05/30 11:14:34;;;;;;;3.10;0.70;;;;;;;;;;5111038;27;20019;-72
2022/05/30 11:17:11;;;;;;;2.33;0.90;;;;;;;;;;5115167;27;20487;-74
2022/05/30 11:19:55;;;;;;;3.47;1.30;;;;;;;;;;5106556;27;20432;-73
2022/05/30 11:22:30;;;;;;;3.05;1.08;;;;;;;;;;5125680;27;20096;-75
2022/05/30 11:24:55;;;;;;;1.98;1.20;;;;;;;;;;5113412;27;20058;-72
2022/05/30 11:27:40;;;;;;;3.35;1.00;;;;;;;;;;5118025;27;20120;-73
2022/05/30 11:30:13;;;;;;;2.92;0.82;;;;;;;;;;5123978;27;20073;-73
2022/05/30 11:32:58;;;;;;;3.33;0.88;;;;;;;;;;5104887;27;20034;-72
2022/05/30 11:35:32;;;;;;;3.60;0.85;;;;;;;;;;5116288;27;20043;-74
2022/05/30 11:38:24;;;;;;;2.22;0.80;;;;;;;;;;5127471;27;20110;-74
2022/05/30 11:41:16;;;;;;;2.47;1.15;;;;;;;;;;5116012;27;20399;-74
2022/05/30 11:43:53;;;;;;;3.30;1.30;;;;;;;;;;5119424;27;20031;-73
2022/05/30 11:46:42;;;;;;;3.35;1.48;;;;;;;;;;5107753;27;20051;-75
2022/05/30 11:49:21;;;;;;;2.88;1.00;;;;;;;;;;5129409;27;20122;-75
2022/05/30 11:52:02;;;;;;;2.40;1.30;;;;;;;;;;5116278;27;20062;-73
2022/05/30 11:54:51;;;;;;;3.40;1.20;;;;;;;;;;5125048;27;20035;-73
2022/05/30 11:57:29;;;;;;;3.25;1.30;;;;;;;;;;5101537;27;20034;-74
2022/05/30 12:00:04;;;;;;;3.25;1.10;;;;;;;;;;5101419;27;20560;-73
2022/05/30 12:02:38;;;;;;;2.63;1.08;;;;;;;;;;5121354;27;20023;-75
2022/05/30 12:05:30;;;;;;;3.05;1.27;;;;;;;;;;5122589;27;20024;-72
2022/05/30 12:08:22;;;;;;;2.58;1.02;;;;;;;;;;5119823;27;20128;-75
2022/05/30 12:11:12;;;;;;;3.50;1.55;;;;;;;;;;5123977;27;20589;-75
2022/05/30 12:13:41;;;;;;;2.95;1.75;;;;;;;;;;5124296;27;20035;-74
2022/05/30 12:16:19;;;;;;;2.53;1.40;;;;;;;;;;5123473;27;20027;-75
2022/05/30 12:24:59;;;;;;;2.88;1.40;;;;;;;;;;5122957;27;20053;-72
2022/05/30 12:27:32;;;;;;;2.65;1.15;;;;;;;;;;5109127;27;20023;-75
2022/05/30 12:29:59;;;;;;;1.90;1.20;;;;;;;;;;5106420;27;20475;-74
2022/05/30 12:32:34;;;;;;;3.42;1.50;;;;;;;;;;5122091;27;20050;-72
2022/05/30 12:35:15;;;;;;;4.10;1.50;;;;;;;;;;5117916;27;20067;-75
2022/05/30 12:37:41;;;;;;;5.07;1.60;;;;;;;;;;5106506;27;20026;-72
2022/05/30 12:40:26;;;;;;;5.82;1.60;;;;;;;;;;5119894;27;20497;-73
2022/05/30 12:43:15;;;;;;;2.40;1.30;;;;;;;;;;5113928;27;20134;-72
2022/05/30 12:45:46;;;;;;;4.03;1.38;;;;;;;;;;5122277;27;20030;-76
2022/05/30 12:48:50;;;;;;;4.10;1.60;;;;;;;;;;5105192;27;20075;-75
2022/05/30 12:51:33;;;;;;;1.85;1.35;;;;;;;;;;5094683;27;20096;-75
2022/05/30 12:54:01;;;;;;;3.50;1.30;;;;;;;;;;5109797;27;20449;-73
2022/05/30 12:56:43;;;;;;;4.20;1.33;;;;;;;;;;5113409;27;20045;-75
2022/05/30 12:59:25;;;;;;;2.63;1.27;;;;;;;;;;5115985;27;20024;-75
2022/05/30 13:01:55;;;;;;;3.80;1.40;;;;;;;;;;5123135;27;20027;-72
2022/05/30 13:04:29;;;;;;;3.00;1.50;;;;;;;;;;5113723;27;20028;-72
2022/05/30 13:06:57;;;;;;;3.05;1.40;;;;;;;;;;5107364;27;20027;-76
2022/05/30 13:09:33;;;;;;;2.05;1.00;;;;;;;;;;5106300;27;20387;-75
2022/05/30 13:12:13;;;;;;;2.65;1.25;;;;;;;;;;5097035;27;20083;-72
2022/05/30 13:15:01;;;;;;;4.72;1.27;;;;;;;;;;5107918;27;20531;-75
2022/05/30 13:17:51;;;;;;;3.40;1.50;;;;;;;;;;5098504;28;20023;-72
2022/05/30 13:20:26;;;;;;;4.35;1.70;;;;;;;;;;5098115;27;20379;-72
2022/05/30 13:22:55;;;;;;;3.78;1.40;;;;;;;;;;5120456;27;20023;-75
2022/05/30 13:25:46;;;;;;;3.53;1.50;;;;;;;;;;5112070;27;20027;-72
2022/05/30 13:28:23;;;;;;;3.53;1.40;;;;;;;;;;5114350;27;20031;-75
2022/05/30 13:30:53;;;;;;;3.17;1.50;;;;;;;;;;5097598;28;20034;-75
2022/05/30 13:33:26;;;;;;;2.80;1.40;;;;;;;;;;5101605;28;20040;-76
2022/05/30 13:35:52;;;;;;;;;;;;;;;;;;5110905;28;20027;-72
2022/05/30 13:38:24;;;;;;;2.95;1.50;;;;;;;;;;5114922;28;20013;-76
2022/05/30 13:40:49;;;;;;;6.07;1.95;;;;;;;;;;5115782;27;20035;-73
2022/05/30 13:43:30;;;;;;;4.03;1.63;;;;;;;;;;5111286;28;20448;-75
2022/05/30 13:45:57;;;;;;;3.75;1.50;;;;;;;;;;5095300;28;20015;-75
2022/05/30 13:48:22;;;;;;;2.47;1.40;;;;;;;;;;5114138;28;20515;-75
2022/05/30 13:50:52;;;;;;;3.55;1.65;;;;;;;;;;5100291;28;20106;-77
2022/05/30 13:53:25;;;;;;;3.38;1.70;;;;;;;;;;5134103;27;20098;-78
2022/05/30 13:56:00;;;;;;;3.17;1.53;;;;;;;;;;5120186;28;20042;-76
2022/05/30 13:58:27;;;;;;;3.83;1.50;;;;;;;;;;5114918;28;20027;-72
2022/05/30 14:00:54;;;;;;;4.78;1.88;;;;;;;;;;5106867;27;20101;-75
2022/05/30 14:03:19;;;;;;;4.82;1.88;;;;;;;;;;5115300;28;20039;-75
2022/05/30 14:05:45;;;;;;;4.82;1.58;;;;;;;;;;5109187;28;20108;-74
2022/05/30 14:08:34;;;;;;;3.72;1.90;;;;;;;;;;5092471;28;20032;-75
2022/05/30 14:11:06;;;;;;;3.05;1.35;;;;;;;;;;5089554;27;20091;-73
2022/05/30 14:13:43;;;;;;;3.67;1.77;;;;;;;;;;5112335;27;20092;-73
2022/05/30 14:16:30;;;;;;;4.00;1.77;;;;;;;;;;5097951;27;20028;-75
2022/05/30 14:19:01;;;;;;;3.92;1.50;;;;;;;;;;5112831;27;20067;-75
2022/05/30 14:21:27;;;;;;;4.80;2.05;;;;;;;;;;5096781;27;20038;-75
2022/05/30 14:23:58;;;;;;;5.40;1.70;;;;;;;;;;5113278;27;20040;-74
2022/05/30 14:26:31;;;;;;;3.80;1.67;;;;;;;;;;5106924;27;20038;-72
2022/05/30 14:29:09;;;;;;;3.65;1.45;;;;;;;;;;5105780;27;20106;-75
2022/05/30 14:31:35;;;;;;;3.13;1.40;;;;;;;;;;5111390;27;20501;-73
2022/05/30 14:34:31;;;;;;;2.70;1.45;;;;;;;;;;5115455;27;20089;-75
2022/05/30 14:36:58;;;;;;;4.22;1.60;;;;;;;;;;5112545;27;20122;-74
2022/05/30 14:39:25;;;;;;;3.38;1.45;;;;;;;;;;5116975;27;20110;-73
2022/05/30 14:42:02;;;;;;;4.13;1.52;;;;;;;;;;5116113;27;20032;-73
2022/05/30 14:44:40;;;;;;;4.25;2.00;;;;;;;;;;5098548;27;20027;-75
2022/05/30 14:47:17;;;;;;;3.40;1.80;;;;;;;;;;5122166;27;20037;-73
2022/05/30 14:49:48;;;;;;;4.55;1.65;;;;;;;;;;5109423;27;20383;-75
2022/05/30 14:52:16;;;;;;;3.78;1.80;;;;;;;;;;5113003;27;20487;-75
2022/05/30 14:54:49;;;;;;;6.78;2.10;;;;;;;;;;5097541;27;20113;-75
2022/05/30 14:57:18;;;;;;;4.65;1.73;;;;;;;;;;5120194;27;20030;-75
2022/05/30 14:59:44;;;;;;;4.20;1.80;;;;;;;;;;5118110;27;20495;-76
2022/05/30 15:04:02;;;;;;;2.95;1.92;;;;;;;;;;5121803;27;20180;-74
2022/05/30 15:05:02;;;;;;;4.95;1.90;;;;;;;;;;5127237;27;20035;-72
2022/05/30 15:07:32;;;;;;;3.80;1.73;;;;;;;;;;5121179;27;20038;-72
2022/05/30 15:09:58;;;;;;;5.28;2.10;;;;;;;;;;5118663;27;20027;-73
2022/05/30 15:12:23;;;;;;;3.47;1.90;;;;;;;;;;5114029;27;20038;-74
2022/05/30 15:14:49;;;;;;;3.25;1.98;;;;;;;;;;5115287;27;20045;-73
2022/05/30 15:17:14;;;;;;;3.50;1.98;;;;;;;;;;5120460;27;20024;-75
2022/05/30 15:19:39;;;;;;;5.90;2.83;;;;;;;;;;5118679;27;20027;-75
2022/05/30 15:22:10;;;;;;;5.13;1.67;;;;;;;;;;5120288;27;20031;-74
2022/05/30 15:24:39;;;;;;;4.28;1.83;;;;;;;;;;5113545;27;20403;-74
2022/05/30 15:27:05;;;;;;;3.60;1.90;;;;;;;;;;5108090;27;20025;-74
2022/05/30 15:29:30;;;;;;;3.75;1.83;;;;;;;;;;5121072;27;20023;-73